createdAt,value
2023-01-19T00:18:04.268Z,6.45
2023-01-19T00:39:50.028Z,6.56
2023-01-19T01:01:45.249Z,8.79
2023-01-19T01:23:31.931Z,7.53
2023-01-19T01:51:28.069Z,6.78
2023-01-19T02:13:21.316Z,7.16
2023-01-19T02:35:08.373Z,5.90
2023-01-19T02:57:19.227Z,6.40
2023-01-19T03:19:11.095Z,5.34
2023-01-19T03:41:01.016Z,7.84
2023-01-19T04:02:46.808Z,4.93
2023-01-19T04:24:32.643Z,7.12
2023-01-19T04:51:15.897Z,7.03
2023-01-19T05:13:01.944Z,8.36
2023-01-19T05:34:47.838Z,7.22
2023-01-19T05:56:32.886Z,5.48
2023-01-19T06:18:18.466Z,6.88
2023-01-19T06:51:06.642Z,5.44
2023-01-19T07:12:53.355Z,6.66
2023-01-19T07:34:39.260Z,4.58
2023-01-19T07:56:27.800Z,5.52
2023-01-19T08:18:15.825Z,5.95
2023-01-19T08:40:01.588Z,3.30
2023-01-19T09:01:47.588Z,5.05
2023-01-19T09:23:33.460Z,3.88
2023-01-19T09:45:28.250Z,6.01
2023-01-19T10:07:22.619Z,4.87
2023-01-19T10:29:20.161Z,5.40
2023-01-19T10:51:07.958Z,5.75
2023-01-19T11:13:07.565Z,4.91
2023-01-19T11:51:19.993Z,3.91
2023-01-19T12:13:06.292Z,3.54
2023-01-19T13:05:52.342Z,3.27
2023-01-19T13:27:36.613Z,3.22
2023-01-19T13:49:22.666Z,3.28
2023-01-19T14:11:06.898Z,3.23
2023-01-19T14:32:49.801Z,3.20
2023-01-19T14:54:40.072Z,2.99
2023-01-19T15:16:23.671Z,2.75
2023-01-19T15:38:06.628Z,2.43
2023-01-19T15:59:50.795Z,5.41
2023-01-19T16:21:33.709Z,5.03
2023-01-19T16:43:18.029Z,2.76
2023-01-19T17:05:00.916Z,1.78
2023-01-19T17:26:45.300Z,4.37
2023-01-19T17:48:28.191Z,3.93
2023-01-19T18:10:12.494Z,2.05
2023-01-19T18:31:55.851Z,4.20
2023-01-19T18:53:39.430Z,3.65
2023-01-19T19:15:22.556Z,1.74
2023-01-19T19:37:05.494Z,4.57
2023-01-19T19:58:49.037Z,2.61
2023-01-19T20:20:32.293Z,1.03
2023-01-19T20:42:15.991Z,3.33
2023-01-19T21:03:58.953Z,6.37
2023-01-19T21:25:50.434Z,3.69
2023-01-19T21:47:34.850Z,1.55
2023-01-19T22:09:17.699Z,4.28
2023-01-19T22:31:05.881Z,4.31
2023-01-19T22:52:48.873Z,1.85
2023-01-19T23:14:31.738Z,0.81
2023-01-19T23:36:15.649Z,4.28
2023-01-19T23:57:58.589Z,4.13
